Time;durP1;ratioP1;P1;durP2;ratioP2;P2;SDS_P1;SDS_P2;PMS_P1;PMS_P2;Temp;Humidity;BMP_temperature;BMP_pressure;BME280_temperature;BME280_humidity;BME280_pressure;Samples;Min_cycle;Max_cycle;Signal;HPM_P1;HPM_P2
2022/06/09 00:01:52;;;;;;;15.77;3.53;;;20.40;99.90;;;;;;5070795;28;20064;-72
2022/06/09 00:04:57;;;;;;;13.00;2.97;;;20.50;99.90;;;;;;5070495;28;20059;-72
2022/06/09 00:08:04;;;;;;;23.40;3.55;;;20.60;99.90;;;;;;5070242;28;20043;-72
2022/06/09 00:11:13;;;;;;;20.35;3.60;;;20.60;99.90;;;;;;5070458;28;20995;-72
2022/06/09 00:14:18;;;;;;;26.70;3.20;;;20.70;99.90;;;;;;5050982;28;20087;-72
2022/06/09 00:17:23;;;;;;;14.68;3.50;;;20.70;99.90;;;;;;5066977;28;20038;-72
2022/06/09 00:20:27;;;;;;;16.63;3.58;;;20.60;99.90;;;;;;5070948;28;20067;-72
2022/06/09 00:23:33;;;;;;;16.23;3.38;;;20.60;99.90;;;;;;5050745;28;20044;-72
2022/06/09 00:26:40;;;;;;;22.05;3.33;;;20.70;99.90;;;;;;5069195;28;20052;-72
2022/06/09 00:29:44;;;;;;;12.27;3.05;;;20.70;99.90;;;;;;5069131;28;20039;-72
2022/06/09 00:32:49;;;;;;;15.63;4.22;;;20.70;99.90;;;;;;5072099;28;20412;-72
2022/06/09 00:35:53;;;;;;;21.50;3.33;;;20.70;99.90;;;;;;5070576;28;20247;-72
2022/06/09 00:39:00;;;;;;;13.75;3.88;;;20.80;99.90;;;;;;5074388;28;20533;-72
2022/06/09 00:42:05;;;;;;;18.88;3.67;;;20.80;99.90;;;;;;5074645;28;20502;-72
2022/06/09 00:45:38;;;;;;;14.10;3.47;;;20.80;99.90;;;;;;5073264;28;20043;-72
2022/06/09 00:48:49;;;;;;;19.42;3.47;;;20.90;99.90;;;;;;5074333;28;20052;-72
2022/06/09 00:51:59;;;;;;;21.70;4.28;;;20.80;99.90;;;;;;5074464;28;20086;-72
2022/06/09 00:55:15;;;;;;;20.80;3.72;;;20.80;99.90;;;;;;5054460;28;20048;-72
2022/06/09 00:58:23;;;;;;;18.10;3.53;;;20.80;99.90;;;;;;5070383;28;20039;-72
2022/06/09 01:01:28;;;;;;;16.33;3.65;;;20.80;99.90;;;;;;5073723;28;20119;-72
2022/06/09 01:04:34;;;;;;;19.45;3.75;;;20.80;99.90;;;;;;5074005;28;20056;-72
2022/06/09 01:07:45;;;;;;;13.85;3.50;;;20.70;99.90;;;;;;5072720;28;20048;-72
2022/06/09 01:10:50;;;;;;;14.25;3.85;;;20.70;99.90;;;;;;5073330;28;20052;-71
2022/06/09 01:13:57;;;;;;;21.67;3.97;;;20.70;99.90;;;;;;5073487;28;20055;-72
2022/06/09 01:17:06;;;;;;;15.30;3.75;;;20.80;99.90;;;;;;5053480;28;20052;-72
2022/06/09 01:20:26;;;;;;;16.10;3.83;;;20.80;99.90;;;;;;5070183;28;20043;-72
2022/06/09 01:24:03;;;;;;;18.55;3.25;;;20.80;99.90;;;;;;5073345;28;20035;-72
2022/06/09 01:27:30;;;;;;;17.02;3.83;;;20.90;99.90;;;;;;5073206;28;20047;-72
2022/06/09 01:30:47;;;;;;;16.92;3.08;;;20.80;99.90;;;;;;5073525;28;20043;-72
2022/06/09 01:33:58;;;;;;;15.90;3.90;;;20.80;99.90;;;;;;5072878;28;20046;-72
2022/06/09 01:37:17;;;;;;;24.98;4.28;;;20.60;99.90;;;;;;5072426;28;20073;-71
2022/06/09 01:40:22;;;;;;;18.00;3.92;;;20.50;99.90;;;;;;5073344;28;20059;-72
2022/06/09 01:43:26;;;;;;;17.25;3.90;;;20.50;99.90;;;;;;5072116;28;20055;-72
2022/06/09 01:46:36;;;;;;;12.45;3.25;;;20.40;99.90;;;;;;5072442;28;20039;-72
2022/06/09 01:49:40;;;;;;;19.02;5.88;;;20.50;99.90;;;;;;5073067;28;20081;-72
2022/06/09 01:52:45;;;;;;;18.60;4.10;;;20.50;99.90;;;;;;5073244;28;20387;-72
2022/06/09 01:55:56;;;;;;;21.08;4.10;;;20.50;99.90;;;;;;5072498;28;20040;-71
2022/06/09 01:59:08;;;;;;;27.30;4.68;;;20.50;99.90;;;;;;5072813;28;20047;-72
2022/06/09 02:02:17;;;;;;;20.85;4.47;;;20.60;99.90;;;;;;5053073;28;20052;-71
2022/06/09 02:05:27;;;;;;;22.27;4.90;;;20.60;99.90;;;;;;5067577;28;20490;-71
2022/06/09 02:22:57;;;;;;;15.63;4.05;;;19.10;99.90;;;;;;5070983;28;20044;-56
2022/06/09 02:26:01;;;;;;;13.85;3.45;;;18.80;99.90;;;;;;5070680;28;20051;-59
2022/06/09 02:29:05;;;;;;;12.55;3.95;;;18.70;99.90;;;;;;5072021;28;20040;-54
2022/06/09 02:32:09;;;;;;;8.45;3.25;;;18.70;99.90;;;;;;5071147;28;20130;-55
2022/06/09 02:35:12;;;;;;;13.40;4.18;;;18.70;99.90;;;;;;5070974;28;20054;-57
2022/06/09 02:38:19;;;;;;;12.40;5.00;;;18.70;99.90;;;;;;5072114;28;20035;-58
2022/06/09 02:42:07;;;;;;;11.77;3.63;;;18.80;99.90;;;;;;5071365;28;20043;-58
2022/06/09 02:45:21;;;;;;;17.73;4.53;;;18.70;99.90;;;;;;5070308;28;20043;-54
2022/06/09 02:48:25;;;;;;;20.17;4.43;;;18.40;99.90;;;;;;5070258;28;20044;-55
2022/06/09 02:51:32;;;;;;;18.17;4.53;;;18.00;99.90;;;;;;5071261;28;20051;-59
2022/06/09 02:54:36;;;;;;;15.40;4.43;;;17.80;99.90;;;;;;5058171;28;20043;-58
2022/06/09 02:57:40;;;;;;;14.32;5.10;;;17.80;99.90;;;;;;5069714;28;20187;-56
2022/06/09 03:00:44;;;;;;;12.35;4.40;;;17.80;99.90;;;;;;5070972;28;20044;-55
2022/06/09 03:03:48;;;;;;;14.82;4.55;;;18.00;99.90;;;;;;5070639;28;20549;-55
2022/06/09 03:06:52;;;;;;;11.23;4.15;;;18.00;99.90;;;;;;5069271;28;20399;-57
2022/06/09 03:09:57;;;;;;;16.45;5.07;;;18.20;99.90;;;;;;5070995;28;20281;-55
2022/06/09 03:13:01;;;;;;;8.98;3.80;;;18.30;99.90;;;;;;5070521;28;20043;-59
2022/06/09 03:16:06;;;;;;;12.02;4.70;;;18.40;99.90;;;;;;5069288;28;20060;-58
2022/06/09 03:19:11;;;;;;;19.10;4.60;;;18.60;99.90;;;;;;5070279;28;20048;-55
2022/06/09 03:22:15;;;;;;;14.57;4.70;;;18.70;99.90;;;;;;5070422;28;20048;-56
2022/06/09 03:25:20;;;;;;;17.85;4.70;;;18.80;99.90;;;;;;5069256;28;20035;-57
2022/06/09 03:28:24;;;;;;;12.38;4.80;;;18.90;99.90;;;;;;5070332;28;20051;-54
2022/06/09 03:31:29;;;;;;;10.93;4.07;;;19.00;99.90;;;;;;5070762;28;20039;-56
2022/06/09 03:34:33;;;;;;;15.75;5.10;;;19.10;99.90;;;;;;5069409;28;20037;-56
2022/06/09 03:37:37;;;;;;;12.93;4.53;;;19.10;99.90;;;;;;5069021;28;20043;-59
2022/06/09 03:40:41;;;;;;;12.88;5.07;;;19.10;99.90;;;;;;5070576;28;20538;-55
2022/06/09 03:43:46;;;;;;;13.70;4.28;;;19.10;99.90;;;;;;5069355;28;20052;-55
2022/06/09 03:46:50;;;;;;;12.65;4.75;;;19.10;99.90;;;;;;5068695;28;20514;-56
2022/06/09 03:49:54;;;;;;;12.50;4.05;;;19.10;99.90;;;;;;5070662;28;20048;-55
2022/06/09 03:52:58;;;;;;;16.95;5.30;;;19.10;99.90;;;;;;5069846;28;20409;-58
2022/06/09 03:56:02;;;;;;;15.68;8.02;;;19.10;99.90;;;;;;5068884;28;20047;-60
2022/06/09 03:59:06;;;;;;;13.57;3.85;;;19.20;99.90;;;;;;5070334;28;20051;-55
2022/06/09 04:02:11;;;;;;;8.18;3.70;;;19.10;99.90;;;;;;5069224;28;20035;-55
2022/06/09 04:05:15;;;;;;;9.43;3.80;;;19.20;99.90;;;;;;5069041;28;20048;-56
2022/06/09 04:08:18;;;;;;;7.03;3.95;;;19.30;99.90;;;;;;5069066;28;20048;-59
2022/06/09 04:11:23;;;;;;;10.32;4.15;;;19.30;99.90;;;;;;5069620;28;20043;-55
2022/06/09 04:14:27;;;;;;;9.70;3.85;;;19.30;99.90;;;;;;5068959;28;20063;-57
2022/06/09 04:17:31;;;;;;;13.93;4.15;;;19.20;99.90;;;;;;5069089;28;20043;-55
2022/06/09 04:20:36;;;;;;;9.90;3.45;;;19.20;99.90;;;;;;5069895;28;20040;-55
2022/06/09 04:23:40;;;;;;;16.58;3.78;;;19.30;99.90;;;;;;5068962;28;20319;-55
2022/06/09 04:26:45;;;;;;;17.92;3.83;;;19.30;99.90;;;;;;5068877;28;20040;-56
2022/06/09 04:29:49;;;;;;;13.45;4.40;;;19.30;99.90;;;;;;5069750;28;20043;-58
2022/06/09 04:32:54;;;;;;;16.25;5.22;;;19.40;99.90;;;;;;5068692;28;20438;-57
2022/06/09 04:35:58;;;;;;;16.33;4.18;;;19.40;99.90;;;;;;5068599;28;20044;-55
2022/06/09 04:39:03;;;;;;;9.60;4.32;;;19.40;99.90;;;;;;5069940;28;20047;-57
2022/06/09 04:42:08;;;;;;;15.60;5.10;;;19.30;99.90;;;;;;5069025;28;20098;-57
2022/06/09 04:45:14;;;;;;;12.45;4.40;;;19.20;99.90;;;;;;5068298;28;20043;-56
2022/06/09 04:48:18;;;;;;;16.13;5.68;;;19.30;99.90;;;;;;5069484;28;20054;-55
2022/06/09 04:51:25;;;;;;;13.20;4.50;;;19.10;99.90;;;;;;5068847;28;20043;-54
2022/06/09 04:54:29;;;;;;;10.68;3.75;;;18.90;99.90;;;;;;5068431;28;20546;-57
2022/06/09 04:57:34;;;;;;;13.63;3.90;;;18.90;99.90;;;;;;5069456;28;20047;-59
2022/06/09 05:00:38;;;;;;;11.18;3.65;;;18.90;99.90;;;;;;5068986;28;20515;-58
2022/06/09 05:03:42;;;;;;;14.48;4.55;;;18.90;99.90;;;;;;5068637;28;20063;-56
2022/06/09 05:06:45;;;;;;;16.83;5.95;;;18.80;99.90;;;;;;5068796;28;20036;-57
2022/06/09 05:09:49;;;;;;;8.73;4.15;;;18.70;99.90;;;;;;5069077;28;20522;-56
2022/06/09 05:12:54;;;;;;;11.45;5.10;;;18.60;99.90;;;;;;5068229;28;20047;-56
2022/06/09 05:15:58;;;;;;;10.82;4.47;;;18.60;99.90;;;;;;5068640;28;20044;-57
2022/06/09 05:19:02;;;;;;;17.42;5.35;;;18.60;99.90;;;;;;5068601;28;20043;-56
2022/06/09 05:22:08;;;;;;;15.07;5.40;;;18.50;99.90;;;;;;5071029;28;20051;-60
2022/06/09 05:25:12;;;;;;;23.33;6.93;;;18.50;99.90;;;;;;5071145;28;20475;-55
2022/06/09 05:28:18;;;;;;;14.88;5.95;;;18.40;99.90;;;;;;5072303;28;20044;-58
2022/06/09 05:31:23;;;;;;;18.45;5.90;;;18.30;99.90;;;;;;5071294;28;20051;-55
2022/06/09 05:34:27;;;;;;;16.08;6.05;;;18.30;99.90;;;;;;5071479;28;20066;-55
2022/06/09 05:47:43;;;;;;;19.10;5.85;;;18.60;99.90;;;;;;5070743;28;20043;-57
2022/06/09 05:50:48;;;;;;;10.57;5.05;;;18.60;99.90;;;;;;5071927;28;20051;-56
2022/06/09 05:53:52;;;;;;;15.65;6.15;;;18.60;99.90;;;;;;5071473;28;20506;-57
2022/06/09 05:56:57;;;;;;;16.80;6.43;;;18.60;99.90;;;;;;5070413;28;20429;-56
2022/06/09 06:00:03;;;;;;;16.40;5.43;;;18.70;99.90;;;;;;5071427;28;20043;-58
2022/06/09 06:03:17;;;;;;;16.08;6.38;;;18.70;99.90;;;;;;5071361;28;20043;-55
2022/06/09 06:20:35;;;;;;;18.33;5.28;;;18.70;99.90;;;;;;5071664;28;20059;-55
2022/06/09 06:23:40;;;;;;;11.55;4.40;;;18.80;99.90;;;;;;5070166;28;20085;-55
2022/06/09 06:26:44;;;;;;;15.38;4.63;;;18.90;99.90;;;;;;5075688;28;20415;-57
2022/06/09 06:29:48;;;;;;;17.70;5.43;;;18.90;99.90;;;;;;5065004;28;20047;-58
2022/06/09 06:32:52;;;;;;;16.55;4.85;;;18.90;99.90;;;;;;5064394;28;20044;-54
2022/06/09 06:35:56;;;;;;;12.60;4.30;;;18.90;99.90;;;;;;5083172;28;20047;-56
2022/06/09 06:39:02;;;;;;;9.93;3.78;;;19.00;99.90;;;;;;5073916;28;20051;-53
2022/06/09 06:42:07;;;;;;;17.50;5.43;;;19.10;99.90;;;;;;5071862;28;20042;-56
2022/06/09 06:45:15;;;;;;;15.10;5.78;;;18.70;99.90;;;;;;5055963;28;20036;-58
2022/06/09 06:48:19;;;;;;;16.33;6.00;;;18.60;99.90;;;;;;5080235;28;20042;-52
2022/06/09 06:51:24;;;;;;;19.65;5.88;;;18.50;99.90;;;;;;5073926;28;20546;-58
2022/06/09 06:54:28;;;;;;;10.93;4.70;;;18.60;99.90;;;;;;5053681;28;20807;-56
2022/06/09 06:57:33;;;;;;;16.25;5.60;;;18.90;99.90;;;;;;5070389;28;20047;-56
2022/06/09 07:00:37;;;;;;;13.52;5.03;;;19.10;99.90;;;;;;5063566;28;20043;-56
2022/06/09 07:03:41;;;;;;;21.33;5.68;;;19.20;99.90;;;;;;5078797;28;20062;-59
2022/06/09 07:06:45;;;;;;;14.88;5.88;;;19.40;99.90;;;;;;5076138;28;20064;-58
2022/06/09 07:09:49;;;;;;;21.80;6.25;;;19.50;99.90;;;;;;5069060;28;20063;-57
2022/06/09 07:12:53;;;;;;;12.50;4.38;;;19.40;99.90;;;;;;5069246;28;20067;-57
2022/06/09 07:15:57;;;;;;;12.55;4.55;;;20.00;99.90;;;;;;5086235;28;20052;-59
2022/06/09 07:19:02;;;;;;;11.35;4.22;;;20.50;99.90;;;;;;5083252;28;20126;-60
2022/06/09 07:22:06;;;;;;;16.52;5.38;;;20.70;99.90;;;;;;5074535;28;20039;-59
2022/06/09 07:25:15;;;;;;;15.48;4.85;;;21.20;99.90;;;;;;5070873;28;20059;-60
2022/06/09 07:28:19;;;;;;;15.60;4.45;;;21.90;99.90;;;;;;5082377;28;20055;-60
2022/06/09 07:31:25;;;;;;;12.90;4.68;;;21.50;99.90;;;;;;5068153;28;20518;-56
2022/06/09 07:34:29;;;;;;;18.10;5.10;;;21.70;99.90;;;;;;5065854;28;20439;-58
2022/06/09 07:37:33;;;;;;;14.45;4.53;;;22.20;99.90;;;;;;5067687;28;20514;-59
2022/06/09 07:40:39;;;;;;;15.23;3.90;;;22.90;99.90;;;;;;5065455;28;20411;-57
2022/06/09 07:43:43;;;;;;;16.20;4.82;;;22.50;99.90;;;;;;5065408;28;20047;-59
2022/06/09 07:46:47;;;;;;;15.48;4.88;;;22.50;99.90;;;;;;5069153;28;20035;-59
2022/06/09 07:49:51;;;;;;;11.27;4.90;;;22.20;99.90;;;;;;5073701;28;20522;-59
2022/06/09 07:52:55;;;;;;;17.30;5.00;;;21.70;99.90;;;;;;5065552;28;20411;-59
2022/06/09 07:56:00;;;;;;;15.45;5.07;;;22.00;99.90;;;;;;5065733;28;20059;-57
2022/06/09 07:59:06;;;;;;;15.27;5.57;;;21.80;99.90;;;;;;5069300;28;20059;-58
2022/06/09 08:02:12;;;;;;;14.40;5.07;;;22.00;99.90;;;;;;5071165;28;20055;-56
2022/06/09 08:05:18;;;;;;;12.23;5.32;;;21.60;99.90;;;;;;5065663;28;20044;-57
2022/06/09 08:08:24;;;;;;;24.70;5.90;;;22.80;99.90;;;;;;5062526;28;20032;-60
2022/06/09 08:11:32;;;;;;;15.05;4.53;;;23.50;99.90;;;;;;5065352;28;20047;-58
2022/06/09 08:14:37;;;;;;;13.95;3.70;;;26.40;99.90;;;;;;5062216;28;20052;-58
2022/06/09 08:17:42;;;;;;;12.00;3.80;;;28.60;99.90;;;;;;5059784;28;20045;-59
2022/06/09 08:20:46;;;;;;;11.27;3.85;;;28.10;99.90;;;;;;5071815;28;20047;-59
2022/06/09 08:23:50;;;;;;;14.73;3.28;;;29.10;99.90;;;;;;5082860;28;20498;-60
2022/06/09 08:26:56;;;;;;;10.35;2.97;;;30.60;99.90;;;;;;5072035;28;20506;-59
2022/06/09 08:29:59;;;;;;;14.48;4.00;;;32.30;99.90;;;;;;5068241;28;20052;-60
2022/06/09 08:33:06;;;;;;;12.93;3.63;;;30.60;99.90;;;;;;5078758;28;20039;-60
2022/06/09 08:36:10;;;;;;;15.25;3.25;;;32.50;99.90;;;;;;5069537;28;20433;-60
2022/06/09 08:39:14;;;;;;;10.30;3.33;;;33.20;99.50;;;;;;5066063;28;20066;-56
2022/06/09 08:42:35;;;;;;;13.50;3.67;;;31.70;99.90;;;;;;5065034;28;20056;-55
2022/06/09 08:45:41;;;;;;;9.65;3.47;;;30.00;99.90;;;;;;5066403;28;20048;-60
2022/06/09 08:48:47;;;;;;;15.98;4.07;;;29.50;99.90;;;;;;5071114;28;20044;-57
2022/06/09 08:51:55;;;;;;;14.38;3.72;;;29.80;99.90;;;;;;5066402;28;20067;-59
2022/06/09 08:55:15;;;;;;;10.45;3.60;;;29.60;99.90;;;;;;5067053;28;20055;-58
2022/06/09 08:58:28;;;;;;;14.95;3.72;;;29.20;99.90;;;;;;5074067;28;20035;-59
2022/06/09 09:01:39;;;;;;;13.85;3.88;;;28.10;99.90;;;;;;5065109;28;20043;-58
2022/06/09 09:04:47;;;;;;;11.77;2.67;;;28.70;99.90;;;;;;5077386;28;20047;-58
2022/06/09 09:07:56;;;;;;;9.50;1.95;;;31.20;99.90;;;;;;5075931;28;20052;-57
2022/06/09 09:11:08;;;;;;;9.90;2.15;;;33.40;99.70;;;;;;5079463;28;20529;-60
2022/06/09 09:14:17;;;;;;;4.90;1.27;;;36.20;97.40;;;;;;5066091;28;20056;-60
2022/06/09 09:17:28;;;;;;;3.70;0.73;;;38.40;92.00;;;;;;5062203;28;20063;-58
2022/06/09 09:20:37;;;;;;;4.90;0.60;;;38.90;88.10;;;;;;5066481;28;20044;-58
2022/06/09 09:24:19;;;;;;;2.53;0.80;;;38.40;82.70;;;;;;5064015;28;20043;-56
2022/06/09 09:27:34;;;;;;;2.35;0.75;;;35.40;84.60;;;;;;5070599;28;20039;-57
2022/06/09 09:31:14;;;;;;;2.80;0.60;;;35.10;87.20;;;;;;5067097;28;20051;-56
2022/06/09 09:34:24;;;;;;;1.75;0.60;;;37.50;84.40;;;;;;5068510;28;20043;-58
2022/06/09 09:37:52;;;;;;;1.27;0.32;;;38.90;80.20;;;;;;5070430;28;20044;-57
2022/06/09 09:41:01;;;;;;;2.47;0.45;;;38.10;77.30;;;;;;5062599;28;20298;-57
2022/06/09 09:44:18;;;;;;;3.75;0.40;;;37.50;76.50;;;;;;5071301;28;20043;-59
2022/06/09 09:47:28;;;;;;;2.10;0.50;;;37.70;76.90;;;;;;5059811;28;20040;-59
2022/06/09 09:50:46;;;;;;;2.05;0.60;;;36.90;74.70;;;;;;5058241;28;20044;-59
2022/06/09 09:53:55;;;;;;;2.63;0.40;;;37.60;76.10;;;;;;5062888;28;20043;-60
2022/06/09 09:57:28;;;;;;;3.70;0.38;;;38.20;74.70;;;;;;5067371;28;20538;-59
2022/06/09 10:00:34;;;;;;;0.85;0.40;;;38.20;72.80;;;;;;5074737;28;20411;-59
2022/06/09 10:10:35;;;;;;;3.95;0.50;;;39.10;71.00;;;;;;5060166;28;20047;-58
2022/06/09 10:13:39;;;;;;;1.27;0.35;;;38.00;70.50;;;;;;5068085;28;20498;-59
2022/06/09 10:16:50;;;;;;;1.38;0.40;;;37.30;71.90;;;;;;5054373;28;20035;-61
2022/06/09 10:20:04;;;;;;;0.95;0.30;;;37.80;72.10;;;;;;5066282;28;20044;-59
2022/06/09 10:23:10;;;;;;;3.15;0.40;;;38.10;70.30;;;;;;5065451;28;20039;-55
2022/06/09 10:26:19;;;;;;;3.20;0.40;;;38.20;71.40;;;;;;5059817;28;20403;-59
2022/06/09 10:30:12;;;;;;;2.47;0.40;;;38.50;71.70;;;;;;5063803;28;20043;-59
2022/06/09 10:33:27;;;;;;;1.88;0.43;;;39.20;70.10;;;;;;5045608;28;20047;-58
2022/06/09 10:36:47;;;;;;;4.65;0.40;;;38.20;70.10;;;;;;5060802;28;20114;-58
2022/06/09 10:39:56;;;;;;;;;;;36.60;70.20;;;;;;5062341;28;20048;-58
2022/06/09 10:43:16;;;;;;;5.13;0.50;;;34.30;73.10;;;;;;5056411;28;19916;-58
2022/06/09 10:46:21;;;;;;;;;;;34.70;73.30;;;;;;5064256;28;20439;-59
2022/06/09 10:56:53;;;;;;;2.28;0.28;;;36.80;68.60;;;;;;5068635;28;20051;-58
2022/06/09 11:00:13;;;;;;;0.73;0.30;;;36.40;69.40;;;;;;5073379;28;20047;-56
2022/06/09 11:03:18;;;;;;;0.32;0.30;;;35.80;70.70;;;;;;5068630;28;20403;-58
2022/06/09 11:06:30;;;;;;;0.20;0.20;;;35.50;69.60;;;;;;5060672;28;20036;-63
2022/06/09 11:09:40;;;;;;;1.65;0.20;;;35.30;71.60;;;;;;4974208;28;20065;-58
2022/06/09 11:13:04;;;;;;;0.35;0.10;;;35.20;69.80;;;;;;4974355;28;20046;-58
2022/06/09 11:16:42;;;;;;;0.82;0.47;;;34.00;70.60;;;;;;4979397;28;20508;-59
2022/06/09 11:19:49;;;;;;;4.25;0.40;;;34.00;70.90;;;;;;4968242;28;20521;-58
2022/06/09 11:23:00;;;;;;;4.85;0.57;;;34.40;70.40;;;;;;4971709;28;20983;-57
2022/06/09 11:26:22;;;;;;;2.63;0.35;;;34.10;69.40;;;;;;4965971;28;20041;-57
2022/06/09 11:30:05;;;;;;;3.70;0.20;;;33.40;70.00;;;;;;4971842;28;20513;-59
2022/06/09 11:33:43;;;;;;;0.77;0.30;;;32.30;70.90;;;;;;4967803;28;20037;-59
2022/06/09 11:36:46;;;;;;;0.50;0.28;;;31.70;70.80;;;;;;4966134;28;20435;-57
2022/06/09 11:40:11;;;;;;;1.10;0.20;;;31.90;71.40;;;;;;4968413;28;20041;-58
2022/06/09 11:43:30;;;;;;;0.68;0.20;;;31.50;71.60;;;;;;4956178;28;20516;-59
2022/06/09 11:46:39;;;;;;;3.72;0.30;;;31.50;72.20;;;;;;4966457;28;20038;-59
2022/06/09 11:50:04;;;;;;;0.20;0.20;;;30.80;73.10;;;;;;4974577;28;20030;-58
2022/06/09 11:53:13;;;;;;;5.10;0.32;;;30.10;73.00;;;;;;4970907;28;20045;-57
2022/06/09 11:56:34;;;;;;;2.25;0.73;;;30.30;73.90;;;;;;4969780;28;20073;-57
2022/06/09 11:59:57;;;;;;;2.40;0.30;;;31.00;73.40;;;;;;4969449;28;20049;-59
2022/06/09 12:03:13;;;;;;;;;;;30.20;72.70;;;;;;4966156;28;20046;-55
2022/06/09 12:06:25;;;;;;;1.02;0.20;;;30.00;74.50;;;;;;4971110;28;19914;-57
2022/06/09 12:09:54;;;;;;;0.82;0.20;;;29.90;74.30;;;;;;4969258;28;20426;-55
2022/06/09 12:13:16;;;;;;;1.70;0.45;;;30.50;74.00;;;;;;4961752;28;20045;-58
2022/06/09 12:16:27;;;;;;;2.85;0.30;;;31.20;74.10;;;;;;4968756;28;20041;-58
2022/06/09 12:19:36;;;;;;;4.47;0.47;;;31.20;75.50;;;;;;4969639;28;20053;-58
2022/06/09 12:22:39;;;;;;;2.13;0.45;;;30.90;73.60;;;;;;4962504;28;20042;-58
2022/06/09 12:25:44;;;;;;;1.73;0.30;;;30.10;74.80;;;;;;4967741;28;20524;-58
2022/06/09 12:28:54;;;;;;;4.90;0.28;;;29.90;74.60;;;;;;4972716;28;20042;-60
2022/06/09 12:32:08;;;;;;;3.00;0.30;;;29.80;74.50;;;;;;4974944;28;20513;-58
2022/06/09 12:35:32;;;;;;;4.10;0.40;;;29.70;74.90;;;;;;4974379;28;20034;-58
2022/06/09 12:38:41;;;;;;;8.23;0.28;;;29.50;75.40;;;;;;4976978;28;20052;-59
2022/06/09 12:42:01;;;;;;;1.45;0.47;;;29.60;74.30;;;;;;4974124;28;20042;-59
2022/06/09 12:45:06;;;;;;;1.77;0.43;;;29.80;76.40;;;;;;4973880;28;20034;-57
2022/06/09 12:48:16;;;;;;;2.65;0.30;;;28.90;75.70;;;;;;4976000;28;20049;-57
2022/06/09 12:51:32;;;;;;;0.50;0.30;;;28.60;76.00;;;;;;4976715;28;20402;-59
2022/06/09 12:54:39;;;;;;;3.00;0.40;;;28.30;77.20;;;;;;4973001;28;20049;-58
2022/06/09 12:57:48;;;;;;;1.13;0.30;;;28.40;75.60;;;;;;4973651;28;20050;-57
2022/06/09 13:00:55;;;;;;;3.78;0.45;;;28.30;75.50;;;;;;4985288;28;20053;-56
2022/06/09 13:04:03;;;;;;;0.60;0.20;;;27.60;75.80;;;;;;4973969;28;20045;-55
2022/06/09 13:07:24;;;;;;;2.58;0.30;;;28.00;77.10;;;;;;4975377;28;20042;-55
2022/06/09 13:10:33;;;;;;;2.55;0.75;;;28.20;76.40;;;;;;4975522;28;20050;-56
2022/06/09 13:13:41;;;;;;;3.22;0.38;;;27.30;77.50;;;;;;4973353;28;20050;-58
2022/06/09 13:16:48;;;;;;;2.00;0.93;;;27.40;78.50;;;;;;4973964;28;20042;-58
2022/06/09 13:20:02;;;;;;;1.10;0.30;;;27.60;78.20;;;;;;4979464;28;20124;-57
2022/06/09 13:23:11;;;;;;;6.53;0.47;;;27.40;79.10;;;;;;4973220;28;20049;-58
2022/06/09 13:26:26;;;;;;;8.02;1.00;;;27.80;79.40;;;;;;4973086;28;20050;-58
2022/06/09 13:29:53;;;;;;;0.57;0.30;;;28.50;78.20;;;;;;4983657;28;20041;-58
2022/06/09 13:32:58;;;;;;;3.55;0.13;;;28.30;76.30;;;;;;4977125;28;20053;-57
2022/06/09 13:36:25;;;;;;;0.65;0.13;;;27.70;77.50;;;;;;4978344;28;20045;-58
2022/06/09 13:39:32;;;;;;;5.75;0.30;;;27.10;78.20;;;;;;4980015;28;20111;-56
2022/06/09 13:42:58;;;;;;;4.50;0.50;;;27.00;79.20;;;;;;4977529;28;20421;-58
2022/06/09 13:46:21;;;;;;;4.32;0.50;;;26.50;79.10;;;;;;4978933;28;20042;-58
2022/06/09 13:49:29;;;;;;;5.90;0.45;;;26.20;79.30;;;;;;4975767;28;20045;-57
2022/06/09 13:52:41;;;;;;;1.02;0.30;;;26.20;80.00;;;;;;4975899;28;20509;-58
2022/06/09 13:55:46;;;;;;;4.63;0.30;;;26.50;80.30;;;;;;4977746;28;20069;-58
2022/06/09 13:58:50;;;;;;;2.72;0.38;;;26.40;79.70;;;;;;4975618;28;20054;-56
2022/06/09 14:01:54;;;;;;;5.32;0.45;;;26.60;81.00;;;;;;4973371;28;20119;-57
2022/06/09 14:04:58;;;;;;;1.55;0.30;;;26.70;80.30;;;;;;4977338;28;20469;-58
2022/06/09 14:08:03;;;;;;;0.63;0.20;;;26.80;80.30;;;;;;4978487;28;20053;-58
2022/06/09 14:11:10;;;;;;;2.28;0.32;;;26.80;79.50;;;;;;4976980;28;20054;-57
2022/06/09 14:14:15;;;;;;;3.13;0.43;;;26.80;79.60;;;;;;4972633;28;20042;-58
2022/06/09 14:17:23;;;;;;;2.15;0.40;;;26.40;80.30;;;;;;4975334;28;20050;-57
2022/06/09 14:20:33;;;;;;;3.25;0.25;;;26.50;79.90;;;;;;4967504;28;20050;-58
2022/06/09 14:23:38;;;;;;;1.00;0.30;;;26.00;80.20;;;;;;4975324;28;20426;-56
2022/06/09 14:26:43;;;;;;;1.80;0.32;;;25.80;81.70;;;;;;4967281;28;20044;-58
2022/06/09 14:29:48;;;;;;;4.68;0.52;;;25.60;81.70;;;;;;4960263;28;20514;-57
2022/06/09 14:32:52;;;;;;;3.63;0.38;;;24.90;83.60;;;;;;4983466;28;20049;-58
2022/06/09 14:35:56;;;;;;;4.00;0.50;;;24.10;86.90;;;;;;4974831;28;20045;-56
2022/06/09 14:39:03;;;;;;;4.22;0.50;;;24.10;87.60;;;;;;4972366;28;20069;-55
2022/06/09 14:42:15;;;;;;;2.05;0.28;;;24.70;88.50;;;;;;4970292;28;20420;-58
2022/06/09 14:45:20;;;;;;;0.60;0.25;;;24.80;86.30;;;;;;4972085;28;20398;-57
2022/06/09 14:48:26;;;;;;;1.13;0.40;;;24.80;86.50;;;;;;4970911;28;20078;-56
2022/06/09 14:51:30;;;;;;;0.93;0.30;;;25.30;85.90;;;;;;4970947;28;20050;-55
2022/06/09 14:54:34;;;;;;;0.70;0.30;;;25.70;86.10;;;;;;4975628;28;20049;-55
2022/06/09 14:57:39;;;;;;;2.65;0.38;;;26.00;85.30;;;;;;4966254;28;20062;-56
2022/06/09 15:00:45;;;;;;;2.67;0.22;;;25.80;83.50;;;;;;4970780;28;20042;-59
2022/06/09 15:03:49;;;;;;;5.25;0.30;;;25.20;83.10;;;;;;4974351;28;20513;-55
2022/06/09 15:06:53;;;;;;;2.08;0.65;;;25.00;84.50;;;;;;4970125;28;20517;-54
2022/06/09 15:09:57;;;;;;;0.30;0.20;;;24.80;85.70;;;;;;4975096;28;20509;-58
2022/06/09 15:13:01;;;;;;;0.45;0.20;;;24.80;85.10;;;;;;4967258;28;20049;-58
2022/06/09 15:16:05;;;;;;;1.10;0.40;;;24.80;83.80;;;;;;4969946;28;20414;-58
2022/06/09 15:19:09;;;;;;;2.55;0.55;;;25.20;84.60;;;;;;4970181;28;20050;-58
2022/06/09 15:22:13;;;;;;;3.15;0.40;;;25.30;82.70;;;;;;4970404;28;20050;-56
2022/06/09 15:25:18;;;;;;;0.93;0.22;;;25.00;82.60;;;;;;4970426;28;20046;-59
2022/06/09 15:28:24;;;;;;;0.43;0.20;;;24.30;83.80;;;;;;4968719;28;20042;-57
2022/06/09 15:31:28;;;;;;;0.38;0.25;;;23.90;85.80;;;;;;4968689;28;20050;-54
2022/06/09 15:34:34;;;;;;;1.80;0.30;;;23.60;87.00;;;;;;4971150;28;20057;-57
2022/06/09 15:37:41;;;;;;;3.90;0.40;;;23.60;88.10;;;;;;4969093;28;20521;-58
2022/06/09 15:40:45;;;;;;;1.23;0.40;;;23.70;88.10;;;;;;4970582;28;20054;-57
2022/06/09 15:43:50;;;;;;;1.77;0.30;;;23.70;89.20;;;;;;4955095;28;20042;-57
2022/06/09 15:46:53;;;;;;;2.47;0.40;;;23.30;89.60;;;;;;4967543;28;20541;-58
2022/06/09 15:49:57;;;;;;;2.15;0.60;;;23.10;90.10;;;;;;4963324;28;20077;-58
2022/06/09 15:53:02;;;;;;;3.97;0.30;;;23.00;90.30;;;;;;4970947;28;20042;-55
2022/06/09 15:56:07;;;;;;;2.70;0.70;;;23.00;90.90;;;;;;4967708;28;20046;-54
2022/06/09 15:59:11;;;;;;;0.30;0.30;;;22.90;90.30;;;;;;4970512;28;20065;-54
2022/06/09 16:02:16;;;;;;;0.25;0.22;;;22.80;90.70;;;;;;4970482;28;20042;-58
2022/06/09 16:05:21;;;;;;;0.60;0.20;;;22.90;90.70;;;;;;4969378;28;20469;-57
2022/06/09 16:08:26;;;;;;;1.77;0.40;;;23.00;90.70;;;;;;4967927;28;20042;-57
2022/06/09 16:11:30;;;;;;;0.98;0.40;;;23.00;90.70;;;;;;4974054;28;20075;-58
2022/06/09 16:14:35;;;;;;;1.95;0.40;;;22.80;90.30;;;;;;4969696;28;20049;-56
2022/06/09 16:17:39;;;;;;;1.15;0.40;;;23.00;90.90;;;;;;4969071;28;20062;-58
2022/06/09 16:20:45;;;;;;;1.27;0.30;;;23.40;91.00;;;;;;4969989;28;20513;-58
2022/06/09 16:23:50;;;;;;;0.98;0.20;;;23.40;90.10;;;;;;4969990;28;20523;-55
2022/06/09 16:26:54;;;;;;;2.60;0.30;;;23.20;90.50;;;;;;4969164;28;20058;-58
2022/06/09 16:29:58;;;;;;;0.73;0.32;;;23.20;90.30;;;;;;4970379;28;20074;-55
2022/06/09 16:33:02;;;;;;;0.90;0.30;;;23.00;90.20;;;;;;4970807;28;20445;-55
2022/06/09 16:36:06;;;;;;;0.68;0.30;;;22.90;90.70;;;;;;4969319;28;20050;-58
2022/06/09 16:39:10;;;;;;;0.38;0.20;;;23.00;91.20;;;;;;4970418;28;20529;-56
2022/06/09 16:42:15;;;;;;;0.20;0.20;;;22.80;90.90;;;;;;4951332;28;20047;-58
2022/06/09 16:45:19;;;;;;;3.95;0.32;;;22.70;91.10;;;;;;4967043;28;20517;-57
2022/06/09 16:48:23;;;;;;;2.55;0.35;;;22.60;91.10;;;;;;4969004;28;20045;-54
2022/06/09 16:51:27;;;;;;;0.28;0.20;;;22.30;91.30;;;;;;4970723;28;20038;-57
2022/06/09 16:54:31;;;;;;;0.17;0.17;;;22.20;91.80;;;;;;4969394;28;20062;-54
2022/06/09 16:57:35;;;;;;;2.28;0.73;;;22.10;91.60;;;;;;4968845;28;20057;-58
2022/06/09 17:00:40;;;;;;;1.40;0.20;;;22.20;91.80;;;;;;4970585;28;20394;-57
2022/06/09 17:03:45;;;;;;;0.50;0.30;;;22.10;92.00;;;;;;4970169;28;20067;-58
2022/06/09 17:06:49;;;;;;;0.47;0.20;;;22.20;92.20;;;;;;4969231;28;20046;-56
2022/06/09 17:09:53;;;;;;;0.60;0.30;;;22.10;92.10;;;;;;5056787;22;20056;-51